Detall de PIREP

Printer-friendly versionPDF version

[2013/07/14 10:00:00]
Flight IATA:CT0001
Pilot Number:012
Company ICAO:CAT
Aircraft Type:F50/A
PAX:50
Aircraft Registration:PAOB
Departing Airport: LEPA
Destination Airport: LEDA
Alternate Airport:LEBL
Online: VATSIM
Route:DRAGO A29 REBUL
Flight Level:F160
No Slew and time accel
No pause
Crash detect
Detect pilot in Cockpit between each 30 and 45 minutes
10:00 Zero fuel Weight: 37465 Lbs, Fuel Weight: 2544 Lbs
10:00 VATSIM:LEPA 140930Z 25004KT 190V320 CAVOK 32/12 Q1018 NOSIG
10:00 VATSIM:No METAR available for LEDA.
10:00 VOICE CATALONIAN
10:07 Parking Brakes off
10:12 Take-off
10:12 Take off Weight: 39906 Lbs
10:12 Wind: 224º @ 007 Knots Heading: 236º
10:12 POS N39º 33´ 27´´ E002º 43´ 58´´
10:12 Gear Up: 111 Knots
10:12 Flaps:3 at 111 Knots
10:12 Flaps:2 at 139 Knots
10:12 Flaps:1 at 145 Knots
10:12 Flaps:0 at 152 Knots
10:21 TOC
10:21 Fuel Weight: 2065 Lb
10:27 Wind:247º@017 Knots Heading: 309º Ground Speed: 249 Knots Altitude 16135 ft
10:42 Wind:187º@003 Knots Heading: 338º Ground Speed: 261 Knots Altitude 16138 ft
10:52 TOD
10:52 Fuel Weight: 1177 Lb
10:57 Wind:229º@002 Knots Heading: 242º Ground Speed: 224 Knots Altitude 7706 ft
11:00 Flaps:1 at 160 Knots
11:00 Flaps:2 at 152 Knots
11:00 Gear Down: 134 Knots
11:00 Flaps:3 at 131 Knots
11:01 Flaps:4 at 107 Knots
11:01 Flaps:5 at 108 Knots
11:02 Flaps:6 at 104 Knots
11:04 TouchDown:Rate -146 ft/min Speed: 95 Knots
11:05 VATSIM:LEDA 141030Z 24002KT 9999 FEW030 26/16 Q1020
11:05 Land
11:05 Wind:162º@002 Knots
11:05 Heading: 313º
11:05 Flight Duration: 00:53
11:05 Landing Weight: 38478 Lbs
11:05 POS N41º 43´ 45´´ E000º 31´ 59´´
11:08 Parking brakes on
11:08 Block to Block Duration: 01:01
11:08 Final Fuel: 981 Lbls
11:08 Spent Fuel: 1563 Lbls
11:08 Flight Length: 196 NM
11:08 TOD Land Length: 39 NM

Exportar CSV

Powered by Drupal - Modified by Danger4k